Tiempo atmosférico en la estación meteorológica de Valdezcaray, estación de esquí, La Rioja (1630 m.)



Fecha
DESCASC
Temp. máxima en grados centígrados (hora)
DESCASC
Temp. mínima en grados centígrados (hora)
DESCASC
Temp. media en grados centígrados
DESCASC
Racha de viento máxima en m/sg (hora)
DESCASC
Velocidad máxima media en intervalos de 10 minutos(hora)
DESCASC
Precipitaciones diarias en mm
DESCASC
Precipitaciones de 00:00 a 06:00 en mm
DESCASC
Precipitaciones de 06:00 a 12:00 en mm
DESCASC
Precipitaciones de 12:00 a 18:00 en mm
DESCASC
Precipitaciones de 18:00 a 24:00 en mm
DESCASC
12-01-2021 2.8 (13:30) -6.6 (-00:0) -1.9 8.33 (21:10) 3.61 (21:10) 0 0 0 0 0
26-01-2021 7.9 (22:30) 0.8 (00:00) 4.4 8.33 (08:40) 3.89 (08:00) 0 0 0 0 0
19-01-2021 5.9 (13:10) 1.8 (00:00) 3.9 22.5 (20:00) 13.33 (20:40) 0 0 0 0 0
18-01-2021 3.7 (14:50) -1.2 (-00:0) 1.3 5.83 (22:30) 4.17 (22:20) 0 0 0 0 0
16-01-2021 5.1 (13:30) -3.5 (-00:0) 0.8 7.5 (06:40) 3.61 (14:20) 0 0 0 0 0
13-01-2021 5 (14:00) -2.3 (-00:0) 1.4 6.94 (04:30) 4.17 (18:50) 0 0 0 0 0
08-01-2021 -5.5 (13:50) -11.9 (-00:0) -8.7 11.94 (23:59) 8.61 (23:59) 0 0 0 0 0
29-12-2020 -2.4 (12:50) -4.5 (-00:0) -3.5 18.06 (06:10) 8.06 (05:50) 0 0 0 0 0
30-12-2020 -1.2 (14:00) -4.7 (-00:0) -2.9 12.22 (04:40) 6.67 (01:00) 0 0 0 0 0
07-01-2021 -5.3 (13:30) -10.8 (-00:0) -8.1 9.17 (09:50) 7.5 (10:00) 0.2 0.2 0 0 0
15-01-2021 0 (00:00) -4.7 (-00:0) -2.3 7.22 (00:40) 3.89 (04:00) 0.4 0 0.4 0 0
17-01-2021 4.8 (11:50) 0.2 (00:00) 2.5 8.61 (14:40) 5.28 (14:40) 1 0 0 0.6 0.4
24-01-2021 2.9 (00:00) -1.5 (-00:0) 0.7 30.28 (00:40) 14.72 (00:30) 1.6 1 0.6 0 0
14-01-2021 5.1 (14:40) -1.4 (11:20) 1.8 7.22 (23:10) 3.89 (03:00) 1.8 0 0 1.2 0.6
28-12-2020 0.8 (02:00) -4.1 (-00:0) -1.6 30 (00:50) 15.83 (00:50) 2.4 2.4 0 0 0
06-01-2021 -4.3 (12:20) -9.5 (-00:0) -6.9 5.28 (23:59) 3.61 (23:50) 3.6 1.2 0 0 2.4
10-01-2021 -6.1 (12:40) -8.3 (00:00) -7.2 6.67 (09:10) 2.78 (20:20) 3.8 1.8 0.6 0.4 1
23-01-2021 5.1 (21:50) -2.1 (-00:0) 1.5 31.39 (18:50) 16.39 (19:50) 3.8 0 0.6 1 2.2
03-01-2021 -3.7 (12:00) -6 (-00:0) -4.9 6.67 (20:10) 3.06 (20:20) 4.4 1.6 1 0 1.8
01-01-2021 -3.8 (02:00) -7.1 (-00:0) -5.4 10.83 (22:10) 4.72 (18:40) 4.4 2.2 0 2 0.2
31-12-2020 -0.6 (17:40) -4.2 (-00:0) -2.4 17.22 (08:50) 7.5 (13:30) 4.4 0 0.2 0.4 3.8
04-01-2021 -4.9 (13:20) -7.3 (-00:0) -6.1 7.78 (14:10) 3.33 (14:10) 4.8 1 0.4 1 2.4
11-01-2021 -5.4 (14:30) -9.3 (-00:0) -7.4 6.39 (05:20) 2.5 (05:50) 6.4 4.4 1.4 0.6 0
21-01-2021 4 (18:40) 1.4 (00:00) 2.7 40.83 (20:00) 18.61 (19:10) 6.8 1.2 1.6 3.4 0.6
05-01-2021 -3.4 (14:30) -8.1 (-00:0) -5.8 4.17 (02:00) 2.22 (06:30) 7.8 4.4 2.2 0.4 0.8
22-01-2021 3.8 (04:00) -2 (-00:0) 0.9 43.33 (04:10) 21.11 (06:10) 9.2 8.6 0.6 0 0
09-01-2021 -5.3 (20:30) -9.3 (-00:0) -7.3 16.39 (01:50) 7.5 (00:40) 9.4 1.2 3.6 3.4 1.2
02-01-2021 -5.8 (23:50) -7.4 (-00:0) -6.6 9.17 (00:20) 4.72 (00:20) 10.6 1 6.2 2.8 0.6
25-01-2021 4.8 (10:20) -0.4 (00:00) 2.2 23.89 (07:20) 12.22 (06:30) 14.6 1 5.6 8 0
20-01-2021 5.4 (00:00) -0.4 (00:00) 2.5 40.83 (13:40) 20.28 (13:50) 23 0 5.2 13.8 4

Gráficas

Temp. máximas Temp. mínimas Temp. medias Precipitaciones Rachas de viento máximas Velocidades máximas media en intervalos de 10 minutos

Datos horarios

Fecha y hora oficial Temperatura (ºC) Velocidad del viento (km/h) Dirección del viento Racha (km/h) Dirección de racha Precipitación (mm) Presión (hPa) Tendencia (hPa) Humedad (%)
2021-01-26 23:00:00 6.8 7 Sudoeste 17 Oeste 0 -- -- 85
2021-01-26 22:00:00 7.5 6 Oeste 21 Oeste 0 -- -- 81
2021-01-26 21:00:00 7.6 8 Noroeste 19 Oeste 0 -- -- 81
2021-01-26 20:00:00 7.6 11 Oeste 28 Oeste 0 -- -- 81
2021-01-26 19:00:00 7.1 10 Noroeste 24 Oeste 0 -- -- 86
2021-01-26 18:00:00 5.4 5 Noroeste 22 Noroeste 0 -- -- 100
2021-01-26 17:00:00 7 12 Oeste 26 Sudoeste 0 -- -- 86
2021-01-26 16:00:00 6.6 10 Noroeste 23 Oeste 0 -- -- 89
2021-01-26 15:00:00 6.7 8 Oeste 25 Oeste 0 -- -- 88
2021-01-26 14:00:00 6.7 8 Oeste 21 Noroeste 0 -- -- 87
2021-01-26 13:00:00 6.7 8 Oeste 20 Oeste 0 -- -- 85
2021-01-26 12:00:00 6.2 8 Noroeste 21 Oeste 0 -- -- 85
2021-01-26 11:00:00 5.5 11 Noroeste 22 Oeste 0 -- -- 86
2021-01-26 10:00:00 4.7 9 Oeste 22 Norte 0 -- -- 90
2021-01-26 09:00:00 4.4 10 Noroeste 30 Oeste 0 -- -- 91
2021-01-26 08:00:00 4.2 14 Noroeste 27 Noroeste 0 -- -- 80
2021-01-26 07:00:00 3.3 4 Norte 24 Oeste 0 -- -- 40
2021-01-26 06:00:00 4.4 13 Oeste 26 Oeste 0 -- -- 34
2021-01-26 05:00:00 4 9 Oeste 23 Noroeste 0 -- -- 36
2021-01-26 04:00:00 4.2 11 Oeste 25 Noroeste 0 -- -- 37
2021-01-26 03:00:00 2.6 9 Noroeste 28 Oeste 0 -- -- 50
2021-01-26 02:00:00 1.8 4 Noroeste 18 Oeste 0 -- -- 51
2021-01-26 01:00:00 1.7 5 Noroeste 19 Noroeste 0 -- -- 56
2021-01-26 00:00:00 0.9 5 Sudeste 10 Oeste 0 -- -- 68
2021-01-25 23:00:00 -0.3 3 Noroeste 15 Oeste 0 -- -- 96
2021-01-25 22:00:00 -0.4 0 Calma 23 Oeste 0 -- -- 99
2021-01-25 21:00:00 -0.3 6 Oeste 14 Sudoeste 0 -- -- 100
2021-01-25 20:00:00 -0.3 4 Oeste 18 Oeste 0 -- -- 100
2021-01-25 19:00:00 0.1 8 Oeste 20 Oeste 0 -- -- 100
2021-01-25 18:00:00 1 10 Noroeste 18 Noroeste 0 -- -- 100
2021-01-25 17:00:00 1.5 5 Noroeste 15 Noroeste 0 -- -- 100
2021-01-25 16:00:00 1.8 9 Noroeste 19 Noroeste 0.2 -- -- 100
2021-01-25 15:00:00 1.3 4 Noroeste 13 Oeste 1.2 -- -- 100
2021-01-25 14:00:00 0.9 7 Oeste 16 Oeste 2.6 -- -- 100
2021-01-25 13:00:00 1 9 Oeste 17 Oeste 4 -- -- 100
2021-01-25 12:00:00 2 3 Noroeste 11 Noroeste 3.8 -- -- 100
2021-01-25 11:00:00 2.8 8 Noroeste 54 Norte 1.6 -- -- 99
2021-01-25 10:00:00 4.6 28 Norte 70 Norte 0 -- -- 96
2021-01-25 09:00:00 4.4 39 Norte 78 Norte 0 -- -- 94
2021-01-25 08:00:00 4 35 Norte 86 Norte 0 -- -- 94
2021-01-25 07:00:00 3.2 37 Norte 82 Noroeste 0.2 -- -- 97
2021-01-25 06:00:00 2.7 40 Norte 76 Norte 0 -- -- 96
2021-01-25 05:00:00 1.7 30 Norte 58 Norte 0.6 -- -- 98
2021-01-25 04:00:00 0.9 14 Sudeste 48 Noroeste 0.4 -- -- 98
2021-01-25 03:00:00 0.6 19 Norte 43 Norte 0 -- -- 96
2021-01-25 02:00:00 0.5 21 Norte 50 Norte 0 -- -- 97
2021-01-25 01:00:00 1 14 Norte 42 Sudeste 0 -- -- 93
2021-01-25 00:00:00 1.2 16 Noroeste 46 Oeste 0 -- -- 91
2021-01-24 23:00:00 1.1 14 Oeste 49 Norte 0 -- -- 89
2021-01-24 22:00:00 0.8 15 Nordeste 49 Norte 0 -- -- 96
2021-01-24 21:00:00 1.1 15 Norte 42 Norte 0 -- -- 93
2021-01-24 20:00:00 0.7 16 Norte 57 Este 0 -- -- 95
2021-01-24 19:00:00 0.7 17 Norte 50 Norte 0 -- -- 91
2021-01-24 18:00:00 0.7 22 Norte 49 Noroeste 0 -- -- 90
2021-01-24 17:00:00 0.5 20 Norte 63 Noroeste 0 -- -- 90
2021-01-24 16:00:00 0.3 17 Norte 47 Nordeste 0 -- -- 93
2021-01-24 15:00:00 0.3 12 Norte 58 Norte 0 -- -- 95
2021-01-24 14:00:00 -0.4 14 Norte 45 Norte 0 -- -- 97
2021-01-24 13:00:00 -0.5 12 Norte 31 Norte 0 -- -- 98
2021-01-24 12:00:00 -1 11 Norte 31 Sudeste 0 -- -- 98
2021-01-24 11:00:00 -1.1 6 Noroeste 27 Sudoeste 0 -- -- 99
2021-01-24 10:00:00 -1.2 12 Noroeste 25 Noroeste 0 -- -- 100
2021-01-24 09:00:00 -1.3 12 Noroeste 23 Norte 0 -- -- 100
2021-01-24 08:00:00 -1 10 Noroeste 25 Norte 0.2 -- -- 100
2021-01-24 07:00:00 -1 14 Noroeste 43 Noroeste 0.4 -- -- 100
2021-01-24 06:00:00 -0.8 21 Noroeste 68 Norte 1 -- -- 100
2021-01-24 05:00:00 0.3 30 Noroeste 75 Noroeste 0 -- -- 100
2021-01-24 04:00:00 0.8 29 Noroeste 85 Norte 0 -- -- 96
2021-01-24 03:00:00 1.5 36 Noroeste 89 Noroeste 0 -- -- 89
2021-01-24 02:00:00 2 45 Norte 100 Norte 0 -- -- 84
2021-01-24 01:00:00 2.1 41 Noroeste 109 Noroeste 0 -- -- 84
2021-01-24 00:00:00 2.9 44 Noroeste 104 Noroeste 0 -- -- 75
2021-01-23 23:00:00 3.6 41 Noroeste 103 Noroeste 0.4 -- -- 71
2021-01-23 22:00:00 4.3 37 Noroeste 106 Noroeste 0.6 -- -- 93
2021-01-23 21:00:00 4.8 46 Noroeste 100 Noroeste 0.6 -- -- 95
2021-01-23 20:00:00 4.6 50 Norte 113 Norte 0.2 -- -- 95
2021-01-23 19:00:00 3.9 55 Norte 113 Norte 0.4 -- -- 97
2021-01-23 18:00:00 2.7 37 Norte 90 Norte 0 -- -- 99
2021-01-23 17:00:00 1.6 26 Norte 82 Norte 0.4 -- -- 100
2021-01-23 16:00:00 0.7 30 Nordeste 85 Este 0.2 -- -- 99
2021-01-23 15:00:00 0.1 24 Norte 84 Sur 0.2 -- -- 98
2021-01-23 14:00:00 0.6 23 Norte 73 Norte 0 -- -- 92
2021-01-23 13:00:00 0.1 19 Nordeste 69 Norte 0.2 -- -- 89
2021-01-23 12:00:00 -0.4 27 Norte 63 Noroeste 0.2 -- -- 94
2021-01-23 11:00:00 -0.4 26 Noroeste 78 Norte 0 -- -- 92
2021-01-23 10:00:00 -0.3 29 Norte 79 Norte 0.2 -- -- 89
2021-01-23 09:00:00 -1.4 28 Norte 89 Norte 0 -- -- 98
2021-01-23 08:00:00 -1.4 26 Sudeste 78 Noroeste 0.2 -- -- 95
2021-01-23 07:00:00 -1.6 30 Norte 75 Norte 0 -- -- 96
2021-01-23 06:00:00 -1.8 25 Norte 75 Norte 0 -- -- 97
2021-01-23 05:00:00 -1.9 46 Norte 81 Noroeste 0 -- -- 98
2021-01-23 04:00:00 -2 32 Norte 80 Noroeste 0 -- -- 100
2021-01-23 03:00:00 -2 30 Norte 71 Norte 0 -- -- 100
2021-01-23 02:00:00 -2 17 Noroeste 73 Norte 0 -- -- 99
2021-01-23 01:00:00 -1.5 21 Norte 70 Noroeste 0 -- -- 93
2021-01-23 00:00:00 -1.4 28 Norte 70 Norte 0 -- -- 92
2021-01-22 23:00:00 -1.2 39 Norte 68 Norte 0 -- -- 89
2021-01-22 22:00:00 -1.1 22 Noroeste 62 Noroeste 0 -- -- 82
2021-01-22 21:00:00 -0.8 37 Norte 73 Noroeste 0 -- -- 75
2021-01-22 20:00:00 -1 24 Noroeste 50 Noroeste 0 -- -- 80
2021-01-22 19:00:00 -0.8 27 Noroeste 60 Noroeste 0 -- -- 84
2021-01-22 18:00:00 -1.2 16 Noroeste 44 Noroeste 0 -- -- 92
2021-01-22 17:00:00 -0.8 17 Noroeste 45 Noroeste 0 -- -- 83
2021-01-22 16:00:00 -2 28 Noroeste 55 Noroeste 0 -- -- 97
2021-01-22 15:00:00 -0.3 14 Noroeste 36 Noroeste 0 -- -- 84
2021-01-22 14:00:00 -0.8 17 Noroeste 40 Noroeste 0 -- -- 90
2021-01-22 13:00:00 -1.2 16 Noroeste 48 Norte 0 -- -- 97
2021-01-22 12:00:00 -1.1 21 Noroeste 40 Norte 0 -- -- 96
2021-01-22 11:00:00 -0.5 19 Noroeste 60 Norte 0 -- -- 90
2021-01-22 10:00:00 -0.6 30 Norte 90 Noroeste 0 -- -- 92
2021-01-22 09:00:00 -0.9 42 Noroeste 99 Noroeste 0.2 -- -- 93
2021-01-22 08:00:00 -0.7 60 Norte 131 Norte 0 -- -- 90
2021-01-22 07:00:00 -0.2 68 Norte 151 Norte 0.4 -- -- 86
2021-01-22 06:00:00 0.7 66 Norte 125 Norte 0 -- -- 95
2021-01-22 05:00:00 0.2 61 Norte 156 Sur 4 -- -- 99
2021-01-22 04:00:00 3.8 36 Este 116 Sur 2.6 -- -- 86
2021-01-22 03:00:00 3.2 40 Sudeste 116 Sur 1 -- -- 91
2021-01-22 02:00:00 2.9 33 Sudeste 108 Sur 0.2 -- -- 92
2021-01-22 01:00:00 2.9 43 Sudeste 117 Sur 0.8 -- -- 91
2021-01-22 00:00:00 3.4 42 Este 86 Sur 0.2 -- -- 84
2021-01-21 23:00:00 3 24 Norte 78 Norte 0 -- -- 92
2021-01-21 22:00:00 3.4 24 Nordeste 106 Norte 0 -- -- 89
2021-01-21 21:00:00 3.7 54 Norte 119 Noroeste 0 -- -- 85
2021-01-21 20:00:00 4 62 Norte 147 Noroeste 0 -- -- 83
2021-01-21 19:00:00 3.7 55 Norte 125 Norte 0.4 -- -- 91
2021-01-21 18:00:00 3.7 44 Norte 112 Norte 0.6 -- -- 95
2021-01-21 17:00:00 3.6 36 Norte 93 Noroeste 0.4 -- -- 94
2021-01-21 16:00:00 3.6 31 Norte 85 Noroeste 0.8 -- -- 92
2021-01-21 15:00:00 3.2 31 Este 85 Sur 0.8 -- -- 92
2021-01-21 14:00:00 3.1 20 Norte 75 Sudeste 0.8 -- -- 89
2021-01-21 13:00:00 2.3 29 Nordeste 89 Nordeste 0 -- -- 95
2021-01-21 12:00:00 1.7 28 Norte 92 Noroeste 0.2 -- -- 98
2021-01-21 11:00:00 2.2 25 Este 80 Este 0 -- -- 93
2021-01-21 10:00:00 1.8 30 Sudeste 72 Sudeste 0 -- -- 93
2021-01-21 09:00:00 1.6 20 Sudeste 62 Sur 0.4 -- -- 95
2021-01-21 08:00:00 1.5 14 Nordeste 48 Oeste 0.8 -- -- 99
2021-01-21 07:00:00 1.7 18 Norte 58 Norte 0.2 -- -- 97
2021-01-21 06:00:00 2 19 Nordeste 64 Norte 0.4 -- -- 93
2021-01-21 05:00:00 2 16 Norte 60 Noroeste 0.2 -- -- 95
2021-01-21 04:00:00 2.1 17 Norte 64 Norte 0.2 -- -- 96
2021-01-21 03:00:00 2.2 18 Norte 62 Norte 0 -- -- 96
2021-01-21 02:00:00 2.1 26 Norte 79 Norte 0.2 -- -- 96
2021-01-21 01:00:00 2.2 22 Norte 63 Noroeste 0.2 -- -- 95
2021-01-21 00:00:00 2.2 19 Nordeste 64 Sur 0.4 -- -- 94
2021-01-20 23:00:00 2.4 26 Sudeste 68 Sur 0.8 -- -- 92
2021-01-20 22:00:00 2.3 19 Nordeste 61 Noroeste 0.6 -- -- 94
2021-01-20 21:00:00 2 30 Norte 62 Norte 0.8 -- -- 95
2021-01-20 20:00:00 2.2 20 Nordeste 56 Este 0.8 -- -- 95
2021-01-20 19:00:00 2.1 26 Este 82 Sur 0.6 -- -- 96
2021-01-20 18:00:00 1.9 23 Sudeste 81 Sur 1 -- -- 93
2021-01-20 17:00:00 1.5 26 Sudeste 100 Sudeste 1.2 -- -- 92
2021-01-20 16:00:00 2.1 59 Sudeste 112 Sur 0.4 -- -- 84
2021-01-20 15:00:00 2.6 49 Sudeste 128 Sudeste 2.4 -- -- 80
2021-01-20 14:00:00 2.3 72 Sudeste 147 Sudeste 8 -- -- 81
2021-01-20 13:00:00 2.2 68 Sudeste 129 Sur 0.8 -- -- 79
2021-01-20 12:00:00 2.3 67 Sudeste 129 Sur 1.6 -- -- 77
2021-01-20 11:00:00 1.5 63 Sudeste 113 Sudeste 0.6 -- -- 86
2021-01-20 10:00:00 0.8 69 Sudeste 129 Sudeste 1.6 -- -- 90
2021-01-20 09:00:00 0.2 41 Sudeste 105 Sudeste 1.4 -- -- 88
2021-01-20 08:00:00 0 35 Sudeste 72 Sur 0 -- -- 81
2021-01-20 07:00:00 -0.4 22 Sudeste 62 Este 0 -- -- 75
2021-01-20 06:00:00 0.6 35 Sudeste 78 Sudeste 0 -- -- 61
2021-01-20 05:00:00 3.5 30 Sudeste 68 Sudeste 0 -- -- 40
2021-01-20 04:00:00 3.9 30 Sudeste 92 Sudeste 0 -- -- 37
2021-01-20 03:00:00 3.5 29 Sudeste 92 Sudeste 0 -- -- 38
2021-01-20 02:00:00 4 47 Sudeste 75 Sur 0 -- -- 35
2021-01-20 01:00:00 4.5 38 Sudeste 67 Sudeste 0 -- -- 32
2021-01-20 00:00:00 5.4 44 Sudeste 74 Sur 0 -- -- 28
2021-01-19 23:00:00 4.9 40 Sudeste 71 Sur 0 -- -- 33
2021-01-19 22:00:00 4.5 30 Sudeste 57 Sur 0 -- -- 35
2021-01-19 21:00:00 4.9 43 Sudeste 79 Sudeste 0 -- -- 28
2021-01-19 20:00:00 4.9 42 Sudeste 81 Sur 0 -- -- 29
2021-01-19 19:00:00 4.7 24 Sudeste 51 Sur 0 -- -- 24
2021-01-19 18:00:00 5.2 15 Sur 56 Sur 0 -- -- 25
2021-01-19 17:00:00 4.8 15 Sur 53 Sur 0 -- -- 24
2021-01-19 16:00:00 4.4 14 Sur 36 Sur 0 -- -- 33
2021-01-19 15:00:00 5.6 18 Sudeste 49 Sur 0 -- -- 29
2021-01-19 14:00:00 5.7 21 Sur 50 Sur 0 -- -- 24
2021-01-19 13:00:00 5.5 18 Sur 40 Sudeste 0 -- -- 28
2021-01-19 12:00:00 5.3 14 Sudeste 35 Sur 0 -- -- 24
2021-01-19 11:00:00 3.5 15 Sudoeste 30 Sur 0 -- -- 33
2021-01-19 10:00:00 2.7 8 Sur 24 Sur 0 -- -- 42
2021-01-19 09:00:00 3.3 14 Norte 39 Norte 0 -- -- 42
2021-01-19 08:00:00 3.3 6 Este 27 Norte 0 -- -- 40
2021-01-19 07:00:00 4 10 Sur 28 Noroeste 0 -- -- 42
2021-01-19 06:00:00 4.6 12 Sudeste 31 Sur 0 -- -- 39
2021-01-19 05:00:00 4.4 11 Este 24 Sudeste 0 -- -- 43
2021-01-19 04:00:00 4.2 7 Sur 18 Noroeste 0 -- -- 41
2021-01-19 03:00:00 4.4 7 Sudoeste 18 Sur 0 -- -- 43
2021-01-19 02:00:00 4 4 Oeste 17 Sudeste 0 -- -- 46
2021-01-19 01:00:00 2.6 8 Sudoeste 15 Sudoeste 0 -- -- 55
2021-01-19 00:00:00 2.8 11 Sudoeste 18 Sudoeste 0 -- -- 56
2021-01-18 23:00:00 2.9 12 Sudoeste 21 Sur 0 -- -- 54
2021-01-18 22:00:00 2.8 10 Sudoeste 18 Sudoeste 0 -- -- 55
2021-01-18 21:00:00 2.5 6 Sudoeste 8 Sudoeste 0 -- -- 59
2021-01-18 20:00:00 0.8 4 Sur 15 Sudeste 0 -- -- 58
2021-01-18 19:00:00 2.4 5 Sudoeste 16 Sur 0 -- -- 31
2021-01-18 18:00:00 0.3 5 Sudeste 12 Sur 0 -- -- 76
2021-01-18 17:00:00 1.8 8 Sudeste 18 Sur 0 -- -- 61
2021-01-18 16:00:00 1.6 8 Sur 15 Sur 0 -- -- 58
2021-01-18 15:00:00 2 5 Sur 14 Sur 0 -- -- 52
2021-01-18 14:00:00 2.9 8 Sur 15 Sur 0 -- -- 44
2021-01-18 13:00:00 2.7 9 Sur 14 Sur 0 -- -- 33
2021-01-18 12:00:00 2.7 8 Sudeste 13 Sudeste 0 -- -- 35
2021-01-18 11:00:00 1.3 10 Sudeste 14 Sudeste 0 -- -- 46
2021-01-18 10:00:00 -0.2 5 Sur 12 Sudeste 0 -- -- 85
2021-01-18 09:00:00 -0.3 6 Sur 11 Sur 0 -- -- 94
2021-01-18 08:00:00 -0.1 2 Oeste 16 Oeste 0 -- -- 98
2021-01-18 07:00:00 0 5 Oeste 12 Oeste 0 -- -- 100
2021-01-18 06:00:00 0 4 Noroeste 11 Norte 0 -- -- 100
2021-01-18 05:00:00 0.1 3 Noroeste 14 Oeste 0 -- -- 100
2021-01-18 04:00:00 0.4 6 Noroeste 13 Noroeste 0 -- -- 100
2021-01-18 03:00:00 0.4 7 Noroeste 16 Oeste 0 -- -- 100
2021-01-18 02:00:00 0.5 6 Noroeste 20 Oeste 0 -- -- 100
2021-01-18 01:00:00 1 7 Noroeste 16 Noroeste 0 -- -- 100
2021-01-18 00:00:00 1 7 Noroeste 16 Oeste 0.2 -- -- 100
2021-01-17 23:00:00 1.2 6 Noroeste 14 Noroeste 0 -- -- 100
2021-01-17 22:00:00 1.5 7 Noroeste 19 Noroeste 0 -- -- 100
2021-01-17 21:00:00 1.8 8 Noroeste 17 Noroeste 0.2 -- -- 100
2021-01-17 20:00:00 2 9 Noroeste 21 Noroeste 0 -- -- 100
2021-01-17 19:00:00 2 9 Noroeste 24 Noroeste 0 -- -- 100
2021-01-17 18:00:00 1.9 6 Noroeste 15 Oeste 0.6 -- -- 100
2021-01-17 17:00:00 2.4 8 Noroeste 20 Oeste 0 -- -- 97
2021-01-17 16:00:00 3 11 Noroeste 30 Noroeste 0 -- -- 93
2021-01-17 15:00:00 3.6 17 Noroeste 31 Noroeste 0 -- -- 86
2021-01-17 14:00:00 3.2 17 Noroeste 29 Noroeste 0 -- -- 88
2021-01-17 13:00:00 3.5 13 Noroeste 25 Oeste 0 -- -- 74
2021-01-17 12:00:00 4.8 14 Noroeste 27 Noroeste 0 -- -- 60
2021-01-17 11:00:00 3.8 10 Noroeste 19 Oeste 0 -- -- 64
2021-01-17 10:00:00 1.2 5 Sudeste 12 Oeste 0 -- -- 74
2021-01-17 09:00:00 1.5 4 Sur 12 Sudeste 0 -- -- 72
2021-01-17 08:00:00 3.2 5 Oeste 16 Oeste 0 -- -- 70
2021-01-17 07:00:00 2.8 3 Sur 8 Sudoeste 0 -- -- 71
2021-01-17 06:00:00 1.7 4 Sudoeste 15 Sudeste 0 -- -- 56
2021-01-17 05:00:00 1 7 Sudeste 13 Sudeste 0 -- -- 34
2021-01-17 04:00:00 1.7 4 Este 12 Sudeste 0 -- -- 45
2021-01-17 03:00:00 3.5 4 Sudoeste 14 Oeste 0 -- -- 36
2021-01-17 02:00:00 3.5 6 Sudoeste 10 Sudoeste 0 -- -- 28
2021-01-17 01:00:00 3.5 5 Sudoeste 14 Sudeste 0 -- -- 28
2021-01-17 00:00:00 0.6 7 Sur 13 Sudeste 0 -- -- 27
2021-01-16 23:00:00 2.7 8 Sudoeste 12 Sudoeste 0 -- -- 30
2021-01-16 22:00:00 1.5 3 Sudeste 10 Sudoeste 0 -- -- 33
2021-01-16 21:00:00 3.5 6 Sudoeste 10 Sudoeste 0 -- -- 28
2021-01-16 20:00:00 3.2 5 Sudoeste 11 Sudoeste 0 -- -- 31
2021-01-16 19:00:00 3.4 7 Sudoeste 12 Sudoeste 0 -- -- 35
2021-01-16 18:00:00 3 3 Sudoeste 10 Oeste 0 -- -- 36
2021-01-16 17:00:00 2.7 5 Sudoeste 9 Oeste 0 -- -- 31
2021-01-16 16:00:00 2.7 5 Sudoeste 10 Sudoeste 0 -- -- 26
2021-01-16 15:00:00 5 6 Sudoeste 18 Sur 0 -- -- 23
2021-01-16 14:00:00 2.9 10 Sur 17 Sur 0 -- -- 34
2021-01-16 13:00:00 3.2 8 Sudeste 15 Sudeste 0 -- -- 30
2021-01-16 12:00:00 0.4 10 Sur 15 Sur 0 -- -- 33
2021-01-16 11:00:00 1.4 10 Nordeste 15 Norte 0 -- -- 29
2021-01-16 10:00:00 0.3 9 Nordeste 16 Nordeste 0 -- -- 31
2021-01-16 09:00:00 0.5 9 Nordeste 15 Nordeste 0 -- -- 31
2021-01-16 08:00:00 0.2 8 Nordeste 17 Nordeste 0 -- -- 31
2021-01-16 07:00:00 -0.2 6 Nordeste 27 Nordeste 0 -- -- 36
2021-01-16 06:00:00 0.1 7 Nordeste 19 Norte 0 -- -- 42
2021-01-16 05:00:00 0.1 6 Sur 21 Nordeste 0 -- -- 45
2021-01-16 04:00:00 -0.3 6 Este 19 Este 0 -- -- 49
2021-01-16 03:00:00 -0.6 8 Este 24 Sudeste 0 -- -- 59
2021-01-16 02:00:00 -1.2 8 Sudeste 24 Sur 0 -- -- 82
2021-01-16 01:00:00 -3.5 9 Sur 22 Sur 0 -- -- 94
2021-01-16 00:00:00 -2.5 7 Sudoeste 17 Sudoeste 0 -- -- 96
2021-01-15 23:00:00 -2.8 3 Noroeste 15 Oeste 0 -- -- 96
2021-01-15 22:00:00 -3.2 4 Nordeste 20 Sur 0 -- -- 96
2021-01-15 21:00:00 -2.8 7 Este 14 Este 0 -- -- 95
2021-01-15 20:00:00 -3.6 4 Nordeste 13 Norte 0 -- -- 98
2021-01-15 19:00:00 -3.8 8 Sudeste 18 Sur 0 -- -- 98
2021-01-15 18:00:00 -3.5 6 Este 12 Sudeste 0 -- -- 100
2021-01-15 17:00:00 -2.1 6 Noroeste 14 Noroeste 0 -- -- 99
2021-01-15 16:00:00 -1.7 6 Noroeste 11 Noroeste 0 -- -- 99
2021-01-15 15:00:00 -1 5 Noroeste 18 Oeste 0 -- -- 98
2021-01-15 14:00:00 -1.9 10 Noroeste 18 Noroeste 0 -- -- 99
2021-01-15 13:00:00 -1.6 8 Noroeste 16 Noroeste 0 -- -- 100
2021-01-15 12:00:00 -1.4 10 Noroeste 19 Oeste 0.2 -- -- 100
2021-01-15 11:00:00 -1.6 8 Noroeste 13 Norte 0 -- -- 100
2021-01-15 10:00:00 -1.9 7 Noroeste 12 Noroeste 0.2 -- -- 100
2021-01-15 09:00:00 -2.6 4 Norte 15 Noroeste 0 -- -- 100
2021-01-15 08:00:00 -2.4 7 Noroeste 19 Norte 0 -- -- 100
2021-01-15 07:00:00 -2.3 6 Noroeste 16 Oeste 0 -- -- 100
2021-01-15 06:00:00 -2.7 6 Oeste 15 Oeste 0 -- -- 100
2021-01-15 05:00:00 -2.2 10 Noroeste 25 Noroeste 0 -- -- 99
2021-01-15 04:00:00 -1.5 14 Noroeste 24 Noroeste 0 -- -- 100
2021-01-15 03:00:00 -1.5 8 Noroeste 17 Noroeste 0 -- -- 100
2021-01-15 02:00:00 -0.8 8 Noroeste 21 Noroeste 0 -- -- 100
2021-01-15 01:00:00 -0.3 11 Noroeste 26 Oeste 0 -- -- 100
2021-01-15 00:00:00 0 13 Noroeste 26 Noroeste 0 -- -- 100
2021-01-14 23:00:00 0.5 8 Noroeste 24 Noroeste 0 -- -- 100
2021-01-14 22:00:00 0.7 11 Noroeste 22 Noroeste 0.2 -- -- 100
2021-01-14 21:00:00 0.8 10 Noroeste 21 Noroeste 0 -- -- 100
2021-01-14 20:00:00 0.7 7 Noroeste 21 Oeste 0 -- -- 100
2021-01-14 19:00:00 0.6 7 Noroeste 15 Noroeste 0.4 -- -- 100
2021-01-14 18:00:00 0.9 8 Noroeste 18 Noroeste 0.6 -- -- 100
2021-01-14 17:00:00 1 8 Noroeste 13 Noroeste 0.6 -- -- 100
2021-01-14 16:00:00 0.6 5 Noroeste 18 Noroeste 0 -- -- 99
2021-01-14 15:00:00 1.6 12 Noroeste 21 Noroeste 0 -- -- 74
2021-01-14 14:00:00 0.3 8 Sur 15 Sur 0 -- -- 48
2021-01-14 13:00:00 3.3 5 Sudoeste 11 Sur 0 -- -- 36
2021-01-14 12:00:00 2 3 Sudoeste 13 Sudeste 0 -- -- 40
2021-01-14 11:00:00 -0.1 6 Este 17 Sudeste 0 -- -- 40
2021-01-14 10:00:00 0.9 11 Este 16 Este 0 -- -- 34
2021-01-14 09:00:00 1.3 4 Nordeste 16 Norte 0 -- -- 35
2021-01-14 08:00:00 2.1 8 Nordeste 15 Nordeste 0 -- -- 33
2021-01-14 07:00:00 0.6 8 Nordeste 13 Este 0 -- -- 37
2021-01-14 06:00:00 -0.2 5 Este 15 Este 0 -- -- 36
2021-01-14 05:00:00 -0.2 5 Nordeste 16 Sudeste 0 -- -- 33
2021-01-14 04:00:00 1 14 Sudeste 21 Sudeste 0 -- -- 24
2021-01-14 03:00:00 1.5 14 Sudeste 20 Sudeste 0 -- -- 23
2021-01-14 02:00:00 1.5 12 Sudeste 17 Sudeste 0 -- -- 22
2021-01-14 01:00:00 1 8 Sudeste 16 Este 0 -- -- 31
2021-01-14 00:00:00 1.2 8 Este 14 Este 0 -- -- 35
2021-01-13 23:00:00 0.4 9 Este 13 Este 0 -- -- 41
2021-01-13 22:00:00 1.7 9 Este 14 Este 0 -- -- 43
2021-01-13 21:00:00 2.2 10 Nordeste 15 Este 0 -- -- 41
2021-01-13 20:00:00 1.6 8 Nordeste 17 Este 0 -- -- 41
2021-01-13 19:00:00 0.1 12 Sudeste 19 Sudeste 0 -- -- 32
2021-01-13 18:00:00 0.3 4 Sudoeste 10 Oeste 0 -- -- 43
2021-01-13 17:00:00 1.8 6 Sudoeste 9 Sudoeste 0 -- -- 35
2021-01-13 16:00:00 -1.1 4 Sur 15 Sudeste 0 -- -- 44
2021-01-13 15:00:00 2 7 Sudoeste 14 Sur 0 -- -- 37
2021-01-13 14:00:00 5 4 Sudoeste 14 Sur 0 -- -- 31
2021-01-13 13:00:00 3.2 5 Sudoeste 14 Sudeste 0 -- -- 32
2021-01-13 12:00:00 2 5 Sur 14 Sur 0 -- -- 32
2021-01-13 11:00:00 0.6 7 Sudeste 16 Sudeste 0 -- -- 36
2021-01-13 10:00:00 0.5 8 Sudeste 13 Este 0 -- -- 43
2021-01-13 09:00:00 -0.4 5 Este 14 Este 0 -- -- 54
2021-01-13 08:00:00 -1 7 Sudeste 15 Sudeste 0 -- -- 58
2021-01-13 07:00:00 -1.4 4 Sudoeste 13 Sur 0 -- -- 56
2021-01-13 06:00:00 -0.3 4 Oeste 12 Oeste 0 -- -- 46
2021-01-13 05:00:00 -0.4 4 Sur 25 Noroeste 0 -- -- 45
2021-01-13 04:00:00 -0.2 6 Este 14 Sur 0 -- -- 45
2021-01-13 03:00:00 -0.1 5 Sudoeste 18 Oeste 0 -- -- 46
2021-01-13 02:00:00 0.3 5 Norte 15 Norte 0 -- -- 46
2021-01-13 01:00:00 -0.7 6 Sudoeste 14 Este 0 -- -- 52
2021-01-13 00:00:00 -1.3 5 Sudoeste 12 Sudeste 0 -- -- 57
2021-01-12 23:00:00 -1.6 5 Sudeste 14 Noroeste 0 -- -- 57
2021-01-12 22:00:00 -1.4 4 Sudoeste 30 Noroeste 0 -- -- 55
2021-01-12 21:00:00 -0.5 10 Norte 25 Noroeste 0 -- -- 50
2021-01-12 20:00:00 -0.9 7 Noroeste 18 Noroeste 0 -- -- 53
2021-01-12 19:00:00 -1.1 5 Sur 18 Oeste 0 -- -- 52
2021-01-12 18:00:00 -1 5 Sudeste 19 Noroeste 0 -- -- 49
2021-01-12 17:00:00 -0.6 5 Sudoeste 15 Noroeste 0 -- -- 46
2021-01-12 16:00:00 -0.4 4 Sudoeste 13 Sudeste 0 -- -- 45
2021-01-12 15:00:00 -1.3 5 Sur 13 Sudeste 0 -- -- 48
2021-01-12 14:00:00 -1.2 7 Sur 15 Sur 0 -- -- 53
2021-01-12 13:00:00 1.1 5 Sudoeste 14 Sudeste 0 -- -- 36
2021-01-12 12:00:00 0.9 8 Este 18 Sudeste 0 -- -- 31
2021-01-12 11:00:00 -1.8 9 Este 16 Este 0 -- -- 47
2021-01-12 10:00:00 -2.6 9 Sudeste 14 Este 0 -- -- 61
2021-01-12 09:00:00 -1.9 6 Nordeste 15 Norte 0 -- -- 58
2021-01-12 08:00:00 -1 8 Nordeste 18 Norte 0 -- -- 55
2021-01-12 07:00:00 -1.5 6 Nordeste 14 Sur 0 -- -- 61
2021-01-12 06:00:00 -2.4 4 Nordeste 18 Este 0 -- -- 63
2021-01-12 05:00:00 -1.8 8 Este 15 Sudeste 0 -- -- 53
2021-01-12 04:00:00 -1.5 10 Sudeste 14 Sudeste 0 -- -- 64
2021-01-12 03:00:00 -3.5 8 Este 13 Sudeste 0 -- -- 75
2021-01-12 02:00:00 -5 5 Este 14 Sur 0 -- -- 83
2021-01-12 01:00:00 -4.6 6 Sudeste 10 Sur 0 -- -- 88
2021-01-12 00:00:00 -6 6 Sudeste 10 Sudeste 0 -- -- 94
2021-01-11 23:00:00 -9 3 Sudeste 7 Sur 0 -- -- 95
2021-01-11 22:00:00 -8.4 3 Sudeste 5 Este 0 -- -- 96
2021-01-11 21:00:00 -8.9 3 Este 5 Sudeste 0 -- -- 94
2021-01-11 20:00:00 -7.3 2 Sudoeste 6 Este 0 -- -- 96
2021-01-11 19:00:00 -7.1 2 Nordeste 6 Sudeste 0 -- -- 95
2021-01-11 18:00:00 -7.4 2 Sudeste 4 Este 0 -- -- 95
2021-01-11 17:00:00 -6.2 0 Calma 8 Norte 0 -- -- 96
2021-01-11 16:00:00 -5.8 2 Sudoeste 6 Noroeste 0 -- -- 96
2021-01-11 15:00:00 -5.9 3 Noroeste 10 Noroeste 0 -- -- 95
2021-01-11 14:00:00 -5.9 3 Oeste 10 Noroeste 0.2 -- -- 95
2021-01-11 13:00:00 -6.2 5 Noroeste 14 Noroeste 0.4 -- -- 96
2021-01-11 12:00:00 -6.4 5 Norte 13 Noroeste 0 -- -- 96
2021-01-11 11:00:00 -6.9 4 Nordeste 13 Norte 0 -- -- 95
2021-01-11 10:00:00 -7.1 4 Norte 14 Noroeste 0.8 -- -- 96
2021-01-11 09:00:00 -7.2 4 Norte 16 Noroeste 0 -- -- 96
2021-01-11 08:00:00 -7.2 4 Noroeste 14 Norte 0 -- -- 96
2021-01-11 07:00:00 -7.2 3 Norte 15 Noroeste 0.6 -- -- 96
2021-01-11 06:00:00 -7 8 Norte 23 Noroeste 1 -- -- 96
2021-01-11 05:00:00 -7 6 Norte 14 Noroeste 0.8 -- -- 96
2021-01-11 04:00:00 -7.2 5 Noroeste 14 Noroeste 0.8 -- -- 96
2021-01-11 03:00:00 -7 6 Noroeste 17 Noroeste 0.8 -- -- 96
2021-01-11 02:00:00 -7 6 Noroeste 17 Noroeste 0.8 -- -- 95
2021-01-11 01:00:00 -6.8 6 Noroeste 19 Noroeste 0.2 -- -- 96
2021-01-11 00:00:00 -6.9 6 Norte 17 Noroeste 0.4 -- -- 96
2021-01-10 23:00:00 -6.8 5 Noroeste 19 Noroeste 0.4 -- -- 96
2021-01-10 22:00:00 -7.4 6 Norte 17 Oeste 0 -- -- 96
2021-01-10 21:00:00 -7.7 7 Noroeste 20 Noroeste 0.2 -- -- 95
2021-01-10 20:00:00 -7.8 6 Norte 17 Noroeste 0 -- -- 95
2021-01-10 19:00:00 -7.8 5 Noroeste 17 Noroeste 0 -- -- 95
2021-01-10 18:00:00 -7.2 6 Noroeste 16 Noroeste 0 -- -- 95
2021-01-10 17:00:00 -6.6 8 Noroeste 17 Norte 0.2 -- -- 96
2021-01-10 16:00:00 -6.2 4 Norte 14 Noroeste 0.2 -- -- 96
2021-01-10 15:00:00 -6.6 6 Norte 14 Noroeste 0 -- -- 96
2021-01-10 14:00:00 -6.6 5 Noroeste 13 Norte 0 -- -- 96
2021-01-10 13:00:00 -6.4 5 Noroeste 11 Noroeste 0 -- -- 96
2021-01-10 12:00:00 -6.7 6 Noroeste 18 Norte 0 -- -- 96
2021-01-10 11:00:00 -6.5 6 Noroeste 17 Noroeste 0 -- -- 95
2021-01-10 10:00:00 -6.5 6 Noroeste 24 Noroeste 0 -- -- 96
2021-01-10 09:00:00 -6.5 9 Noroeste 20 Noroeste 0 -- -- 96
2021-01-10 08:00:00 -6.7 4 Norte 21 Oeste 0.2 -- -- 96
2021-01-10 07:00:00 -6.8 5 Noroeste 23 Nordeste 0.4 -- -- 96
2021-01-10 06:00:00 -7 7 Norte 15 Norte 0.8 -- -- 96
2021-01-10 05:00:00 -7.1 4 Oeste 17 Noroeste 0.6 -- -- 96
2021-01-10 04:00:00 -7.3 4 Noroeste 9 Oeste 0.2 -- -- 96
2021-01-10 03:00:00 -7.6 2 Noroeste 4 Noroeste 0.2 -- -- 95
2021-01-10 02:00:00 -8.1 2 Sudeste 7 Noroeste 0 -- -- 95
2021-01-10 01:00:00 -8.1 2 Noroeste 6 Noroeste 0 -- -- 95
2021-01-10 00:00:00 -8.3 0 Calma 5 Noroeste 0 -- -- 95
2021-01-09 23:00:00 -8.3 0 Calma 14 Sur 0 -- -- 95
2021-01-09 22:00:00 -8.5 0 Calma 5 Noroeste 0 -- -- 96
2021-01-09 21:00:00 -8.3 0 Calma 17 Sudeste 0.2 -- -- 95
2021-01-09 20:00:00 -5.4 8 Sudeste 20 Sudeste 0.4 -- -- 93
2021-01-09 19:00:00 -5.8 11 Sudeste 25 Sudeste 0.6 -- -- 93
2021-01-09 18:00:00 -7.6 3 Sudeste 14 Nordeste 0 -- -- 98
2021-01-09 17:00:00 -7.8 0 Calma 3 Noroeste 0.6 -- -- 94
2021-01-09 16:00:00 -7.5 0 Calma 7 Noroeste 0.6 -- -- 94
2021-01-09 15:00:00 -8 3 Noroeste 5 Norte 0.8 -- -- 93
2021-01-09 14:00:00 -8.1 5 Noroeste 8 Noroeste 0.6 -- -- 92
2021-01-09 13:00:00 -7.9 3 Noroeste 6 Noroeste 0.8 -- -- 92
2021-01-09 12:00:00 -8.6 4 Noroeste 10 Sudoeste 1 -- -- 93
2021-01-09 11:00:00 -9.1 3 Sur 18 Sudeste 0.6 -- -- 93
2021-01-09 10:00:00 -9.3 7 Noroeste 26 Sudeste 0.4 -- -- 93
2021-01-09 09:00:00 -8.9 5 Sudoeste 31 Este 0.2 -- -- 93
2021-01-09 08:00:00 -8.9 7 Sur 17 Sur 0.8 -- -- 94
2021-01-09 07:00:00 -7.9 8 Sur 30 Sur 0.6 -- -- 93
2021-01-09 06:00:00 -7.8 10 Sur 46 Sudeste 0.6 -- -- 91
2021-01-09 05:00:00 -7.3 17 Sudeste 42 Sur 0.4 -- -- 90
2021-01-09 04:00:00 -7.2 20 Sudeste 50 Sur 0 -- -- 92
2021-01-09 03:00:00 -7.1 22 Sudeste 52 Sudeste 0 -- -- 90
2021-01-09 02:00:00 -7.1 17 Sur 59 Sudeste 0.2 -- -- 88
2021-01-09 01:00:00 -6.7 20 Sur 37 Sur 0 -- -- 87
2021-01-09 00:00:00 -6.6 31 Sur 43 Sur 0 -- -- 83
2021-01-08 23:00:00 -6.5 24 Sur 36 Sur 0 -- -- 80
2021-01-08 22:00:00 -6.9 11 Sudeste 20 Sudeste 0 -- -- 68
2021-01-08 21:00:00 -8.5 3 Norte 21 Sudeste 0 -- -- 94
2021-01-08 20:00:00 -8.6 3 Noroeste 14 Sur 0 -- -- 95
2021-01-08 19:00:00 -8.4 6 Noroeste 14 Sudeste 0 -- -- 95
2021-01-08 18:00:00 -7.6 8 Sudeste 15 Este 0 -- -- 83
2021-01-08 17:00:00 -8 9 Este 18 Este 0 -- -- 95
2021-01-08 16:00:00 -7.7 5 Noroeste 15 Este 0 -- -- 94
2021-01-08 15:00:00 -6.5 9 Este 22 Este 0 -- -- 74
2021-01-08 14:00:00 -5.5 10 Este 21 Este 0 -- -- 55
2021-01-08 13:00:00 -7 15 Este 21 Sudeste 0 -- -- 67
2021-01-08 12:00:00 -7.8 12 Sudeste 20 Sur 0 -- -- 66
2021-01-08 11:00:00 -7.5 12 Sudeste 21 Sudeste 0 -- -- 58
2021-01-08 10:00:00 -7.5 14 Sudeste 24 Sudeste 0 -- -- 54
2021-01-08 09:00:00 -7.8 13 Sudeste 19 Sudeste 0 -- -- 60
2021-01-08 08:00:00 -7.9 13 Sudeste 22 Sudeste 0 -- -- 61
2021-01-08 07:00:00 -9.2 9 Sudeste 14 Este 0 -- -- 62
2021-01-08 06:00:00 -8.9 13 Sudeste 19 Sudeste 0 -- -- 60
2021-01-08 05:00:00 -11.9 0 Calma 8 Este 0 -- -- 92
2021-01-08 04:00:00 -11.9 4 Este 10 Sur 0 -- -- 91
2021-01-08 03:00:00 -10.5 5 Este 9 Este 0 -- -- 93
2021-01-08 02:00:00 -11.1 4 Este 9 Sudeste 0 -- -- 93
2021-01-08 01:00:00 -9.7 6 Este 12 Este 0 -- -- 93
2021-01-08 00:00:00 -9.9 6 Este 11 Este 0 -- -- 93
2021-01-07 23:00:00 -9.6 5 Sudeste 12 Sur 0 -- -- 92
2021-01-07 22:00:00 -10.1 5 Este 10 Este 0 -- -- 94
2021-01-07 21:00:00 -9.7 4 Sudeste 11 Nordeste 0 -- -- 86
2021-01-07 20:00:00 -7.7 4 Nordeste 17 Este 0 -- -- 80
2021-01-07 19:00:00 -8.4 14 Este 20 Este 0 -- -- 77
2021-01-07 18:00:00 -8.3 12 Este 16 Este 0 -- -- 78
2021-01-07 17:00:00 -7.4 11 Sudeste 17 Sudeste 0 -- -- 73
2021-01-07 16:00:00 -7.3 13 Sudeste 18 Sudeste 0 -- -- 76
2021-01-07 15:00:00 -6.4 15 Sudeste 23 Sudeste 0 -- -- 76
2021-01-07 14:00:00 -5.3 17 Sudeste 27 Sudeste 0 -- -- 73
2021-01-07 13:00:00 -5.6 22 Sudeste 30 Sudeste 0 -- -- 73
2021-01-07 12:00:00 -6.8 19 Sudeste 30 Sudeste 0 -- -- 75
2021-01-07 11:00:00 -6.9 24 Sudeste 32 Sudeste 0 -- -- 75
2021-01-07 10:00:00 -6.7 27 Sudeste 33 Sudeste 0 -- -- 77
2021-01-07 09:00:00 -6.8 26 Sudeste 31 Sudeste 0 -- -- 78
2021-01-07 08:00:00 -7 21 Sudeste 28 Sudeste 0 -- -- 72
2021-01-07 07:00:00 -6.4 21 Sudeste 30 Este 0 -- -- 76
2021-01-07 06:00:00 -6.2 22 Este 31 Sudeste 0 -- -- 74
2021-01-07 05:00:00 -6.7 18 Sudeste 29 Sudeste 0 -- -- 67
2021-01-07 04:00:00 -7.1 19 Sudeste 22 Sudeste 0 -- -- 74
2021-01-07 03:00:00 -7.1 18 Este 24 Este 0 -- -- 76
2021-01-07 02:00:00 -7 18 Este 21 Este 0.2 -- -- 85
2021-01-07 01:00:00 -7.1 16 Este 20 Este 0 -- -- 85
2021-01-07 00:00:00 -7.4 11 Este 19 Este 0 -- -- 85
2021-01-06 23:00:00 -7.7 11 Este 17 Este 0 -- -- 87
2021-01-06 22:00:00 -8 8 Sudeste 14 Este 0 -- -- 92
2021-01-06 21:00:00 -8.3 8 Este 12 Sur 0.6 -- -- 93
2021-01-06 20:00:00 -8.6 8 Sudeste 10 Este 1.2 -- -- 91
2021-01-06 19:00:00 -8.2 8 Este 12 Sudeste 0.6 -- -- 92
2021-01-06 18:00:00 -8.9 6 Sudeste 12 Sudeste 0 -- -- 94
2021-01-06 17:00:00 -6.7 4 Este 9 Sudeste 0 -- -- 93
2021-01-06 16:00:00 -7.6 7 Sudeste 13 Sur 0 -- -- 92
2021-01-06 15:00:00 -8.5 9 Sur 10 Sur 0 -- -- 90
2021-01-06 14:00:00 -5.4 4 Sur 8 Sur 0 -- -- 86
2021-01-06 13:00:00 -5.6 5 Sur 9 Sur 0 -- -- 92
2021-01-06 12:00:00 -5.4 3 Oeste 13 Noroeste 0 -- -- 93
2021-01-06 11:00:00 -6 2 Este 8 Noroeste 0 -- -- 93
2021-01-06 10:00:00 -6.6 3 Norte 5 Nordeste 0 -- -- 95
2021-01-06 09:00:00 -6.9 3 Nordeste 6 Nordeste 0 -- -- 95
2021-01-06 08:00:00 -6.9 3 Norte 6 Noroeste 0 -- -- 95
2021-01-06 07:00:00 -6.5 4 Norte 6 Norte 0 -- -- 96
2021-01-06 06:00:00 -6.4 3 Norte 9 Noroeste 0.2 -- -- 96
2021-01-06 05:00:00 -6 2 Noroeste 11 Norte 0.2 -- -- 97
2021-01-06 04:00:00 -6.5 0 Calma 5 Norte 0 -- -- 96
2021-01-06 03:00:00 -6.3 2 Oeste 9 Noroeste 0 -- -- 96
2021-01-06 02:00:00 -5.8 3 Oeste 10 Noroeste 0.6 -- -- 97
2021-01-06 01:00:00 -6.1 2 Oeste 6 Noroeste 0.2 -- -- 97
2021-01-06 00:00:00 -5.9 4 Noroeste 10 Noroeste 0.6 -- -- 97
2021-01-05 23:00:00 -6 4 Noroeste 9 Noroeste 0.2 -- -- 98
2021-01-05 22:00:00 -6.3 2 Noroeste 6 Noroeste 0 -- -- 96
2021-01-05 21:00:00 -7.3 3 Sudeste 8 Sudeste 0 -- -- 97
2021-01-05 20:00:00 -6.7 3 Sudeste 7 Oeste 0 -- -- 94
2021-01-05 19:00:00 -6.1 4 Oeste 6 Noroeste 0 -- -- 97
2021-01-05 18:00:00 -6.5 0 Calma 5 Sudeste 0 -- -- 97
2021-01-05 17:00:00 -5.6 0 Calma 4 Sudeste 0 -- -- 97
2021-01-05 16:00:00 -4.3 0 Calma 8 Noroeste 0 -- -- 96
2021-01-05 15:00:00 -3.8 5 Noroeste 11 Oeste 0 -- -- 97
2021-01-05 14:00:00 -4.1 6 Noroeste 12 Noroeste 0 -- -- 97
2021-01-05 13:00:00 -4.1 4 Noroeste 9 Noroeste 0.4 -- -- 97
2021-01-05 12:00:00 -4.7 3 Noroeste 5 Norte 0.2 -- -- 97
2021-01-05 11:00:00 -5.1 3 Noroeste 8 Norte 0.2 -- -- 97
2021-01-05 10:00:00 -5.7 3 Noroeste 8 Noroeste 0.4 -- -- 97
2021-01-05 09:00:00 -6 4 Noroeste 9 Oeste 0.4 -- -- 97
2021-01-05 08:00:00 -6.2 2 Noroeste 10 Noroeste 0.2 -- -- 97
2021-01-05 07:00:00 -6 6 Noroeste 14 Noroeste 0.8 -- -- 97
2021-01-05 06:00:00 -5.9 6 Noroeste 11 Noroeste 1.4 -- -- 97
2021-01-05 05:00:00 -6.3 5 Noroeste 13 Noroeste 1 -- -- 97
2021-01-05 04:00:00 -5.9 6 Noroeste 10 Noroeste 1.4 -- -- 97
2021-01-05 03:00:00 -6.7 7 Noroeste 13 Noroeste 0 -- -- 96
2021-01-05 02:00:00 -7 7 Noroeste 15 Noroeste 0.4 -- -- 96
2021-01-05 01:00:00 -6.8 6 Oeste 11 Noroeste 0.2 -- -- 96
2021-01-05 00:00:00 -6 5 Noroeste 13 Noroeste 1.4 -- -- 96
2021-01-04 23:00:00 -5.8 7 Noroeste 10 Noroeste 0.8 -- -- 97
2021-01-04 22:00:00 -6.4 5 Noroeste 10 Noroeste 0 -- -- 96
2021-01-04 21:00:00 -6.2 5 Noroeste 11 Noroeste 0 -- -- 96
2021-01-04 20:00:00 -6.1 6 Noroeste 15 Noroeste 0 -- -- 97
2021-01-04 19:00:00 -6 7 Noroeste 13 Noroeste 0.2 -- -- 97
2021-01-04 18:00:00 -6 8 Noroeste 19 Noroeste 0 -- -- 97
2021-01-04 17:00:00 -5.8 11 Noroeste 22 Noroeste 0 -- -- 97
2021-01-04 16:00:00 -5.7 10 Noroeste 17 Noroeste 0.2 -- -- 97
2021-01-04 15:00:00 -5.7 9 Noroeste 28 Noroeste 0.2 -- -- 96
2021-01-04 14:00:00 -5.2 9 Noroeste 17 Noroeste 0.2 -- -- 96
2021-01-04 13:00:00 -5.3 7 Oeste 14 Oeste 0.4 -- -- 95
2021-01-04 12:00:00 -5.8 5 Oeste 18 Noroeste 0.4 -- -- 96
2021-01-04 11:00:00 -6.2 5 Sudoeste 14 Oeste 0 -- -- 95
2021-01-04 10:00:00 -6.9 7 Sudoeste 14 Noroeste 0 -- -- 95
2021-01-04 09:00:00 -7 6 Oeste 15 Noroeste 0 -- -- 96
2021-01-04 08:00:00 -7.1 6 Sudoeste 16 Sudoeste 0 -- -- 95
2021-01-04 07:00:00 -7.1 5 Sudoeste 13 Noroeste 0 -- -- 95
2021-01-04 06:00:00 -7.2 6 Sudoeste 11 Sudoeste 0 -- -- 96
2021-01-04 05:00:00 -7 4 Sudoeste 11 Sudoeste 0 -- -- 96
2021-01-04 04:00:00 -6.8 4 Sudoeste 9 Sudoeste 0 -- -- 96
2021-01-04 03:00:00 -6.6 4 Sudoeste 13 Oeste 0.4 -- -- 96
2021-01-04 02:00:00 -5.7 4 Noroeste 10 Noroeste 0.2 -- -- 97
2021-01-04 01:00:00 -5.6 4 Norte 14 Noroeste 0.4 -- -- 97
2021-01-04 00:00:00 -5 4 Noroeste 12 Noroeste 0.8 -- -- 98
2021-01-03 23:00:00 -4.8 3 Noroeste 10 Noroeste 0.4 -- -- 97
2021-01-03 22:00:00 -5 5 Noroeste 14 Noroeste 0 -- -- 97
2021-01-03 21:00:00 -4.7 8 Noroeste 24 Norte 0 -- -- 98
2021-01-03 20:00:00 -4.4 9 Norte 22 Oeste 0.6 -- -- 98
2021-01-03 19:00:00 -4.3 9 Norte 17 Noroeste 0 -- -- 98
2021-01-03 18:00:00 -4.5 4 Norte 17 Norte 0 -- -- 98
2021-01-03 17:00:00 -4.6 6 Norte 14 Norte 0 -- -- 98
2021-01-03 16:00:00 -4.7 4 Noroeste 10 Noroeste 0 -- -- 97
2021-01-03 15:00:00 -4.5 4 Noroeste 11 Noroeste 0 -- -- 97
2021-01-03 14:00:00 -3.7 3 Noroeste 9 Norte 0 -- -- 98
2021-01-03 13:00:00 -3.8 4 Noroeste 9 Noroeste 0 -- -- 98
2021-01-03 12:00:00 -3.7 3 Noroeste 8 Oeste 0 -- -- 97
2021-01-03 11:00:00 -4.5 4 Noroeste 10 Noroeste 0.6 -- -- 97
2021-01-03 10:00:00 -4.6 3 Noroeste 13 Noroeste 0 -- -- 98
2021-01-03 09:00:00 -5 6 Noroeste 12 Oeste 0 -- -- 98
2021-01-03 08:00:00 -5.5 3 Noroeste 7 Noroeste 0.4 -- -- 97
2021-01-03 07:00:00 -5.3 4 Noroeste 10 Noroeste 0 -- -- 97
2021-01-03 06:00:00 -5.2 5 Noroeste 10 Noroeste 0.2 -- -- 97
2021-01-03 05:00:00 -5.4 5 Noroeste 12 Noroeste 0.2 -- -- 97
2021-01-03 04:00:00 -5.4 6 Noroeste 10 Noroeste 0 -- -- 97
2021-01-03 03:00:00 -5.5 6 Noroeste 11 Noroeste 0.2 -- -- 97
2021-01-03 02:00:00 -5.6 5 Noroeste 9 Noroeste 0.8 -- -- 97
2021-01-03 01:00:00 -5.9 5 Noroeste 9 Noroeste 0.2 -- -- 97
2021-01-03 00:00:00 -5.9 5 Noroeste 8 Noroeste 0.4 -- -- 97
2021-01-02 23:00:00 -6.3 4 Noroeste 13 Noroeste 0 -- -- 96
2021-01-02 22:00:00 -6.5 4 Norte 9 Oeste 0.2 -- -- 96
2021-01-02 21:00:00 -6.6 5 Noroeste 13 Noroeste 0 -- -- 96
2021-01-02 20:00:00 -6.7 5 Noroeste 11 Noroeste 0 -- -- 96
2021-01-02 19:00:00 -6.8 5 Noroeste 13 Noroeste 0 -- -- 96
2021-01-02 18:00:00 -6.8 8 Noroeste 20 Noroeste 0 -- -- 96
2021-01-02 17:00:00 -6.6 6 Noroeste 20 Noroeste 0 -- -- 96
2021-01-02 16:00:00 -6.5 7 Noroeste 20 Noroeste 0.2 -- -- 96
2021-01-02 15:00:00 -6.4 6 Noroeste 23 Noroeste 0.8 -- -- 96
2021-01-02 14:00:00 -6.1 9 Noroeste 17 Noroeste 0.6 -- -- 96